Helmsburg, Indiana
Current Conditions -  °F | °C
As of 7:55 PM on Sunday 23 Nov 2014 (Local Time) from K1II Reporting Station
Moderate Rain Moderate Rain  
Wind Chill: 54°   Ceiling: 500
Heat Index: 54°   Visibility: 5mi
Dew Point: 52°   Wind: 8mph
Humidity: 94%   Direction: 140°SE
Pressure: 29.35"   Gusts: NA
Location:  39.27°N, 86.29°W
Report Text: K1II 240055Z AUTO 14007KT 5SM RA BKN005 BKN010 OVC016 12/11 A2935 RMK AO2
Loading
Personal Weather Stations






























Interactive Weather Map New forecast layout! Learn more

10-Day Weather Forecast

Advertisements
Track Severe Weather on mobile